createdAt,value
2018-12-01T00:01:10.560Z,1.04
2018-12-01T00:02:20.737Z,1.03
2018-12-01T00:03:30.901Z,1.02
2018-12-01T00:04:41.024Z,1.02
2018-12-01T00:05:51.173Z,1.07
2018-12-01T00:07:03.068Z,1.03
2018-12-01T00:08:13.298Z,1.1
2018-12-01T00:09:23.174Z,1.04
2018-12-01T00:10:33.334Z,1.02
2018-12-01T00:11:43.497Z,1.04
2018-12-01T00:12:53.646Z,1
2018-12-01T00:14:04.838Z,1.02
2018-12-01T00:15:14.723Z,1.04
2018-12-01T00:16:24.925Z,1.03
2018-12-01T00:17:34.814Z,1.08
2018-12-01T00:18:44.990Z,1.03
2018-12-01T00:19:55.178Z,1.04
2018-12-01T00:21:05.317Z,1.1
2018-12-01T00:22:15.477Z,1.04
2018-12-01T00:23:25.301Z,1.22
2018-12-01T00:24:35.415Z,1.11
2018-12-01T00:25:45.606Z,1.17
2018-12-01T00:26:55.739Z,1.12
2018-12-01T00:28:05.926Z,1.11
2018-12-01T00:29:16.047Z,1.14
2018-12-01T00:30:26.180Z,1.12
2018-12-01T00:31:36.443Z,1.14
2018-12-01T00:32:46.824Z,1.02
2018-12-01T00:33:56.706Z,1.04
2018-12-01T00:35:06.880Z,0.97
2018-12-01T00:36:17.116Z,1.04
2018-12-01T00:37:27.274Z,1.07
2018-12-01T00:38:37.407Z,1.03
2018-12-01T00:39:47.288Z,1.11
2018-12-01T00:40:57.406Z,1.02
2018-12-01T00:42:07.615Z,1.07
2018-12-01T00:43:17.750Z,1.04
2018-12-01T00:44:27.883Z,0.97
2018-12-01T00:45:37.739Z,1.02
2018-12-01T00:46:47.868Z,1.15
2018-12-01T00:47:57.699Z,0.99
2018-12-01T00:49:08.188Z,1.14
2018-12-01T00:50:18.330Z,1.03
2018-12-01T00:51:28.482Z,1.02
2018-12-01T00:52:38.357Z,1.07
2018-12-01T00:53:48.247Z,1.14
2018-12-01T00:54:58.231Z,1.03
2018-12-01T00:56:08.120Z,1.15
2018-12-01T00:57:18.252Z,1.14
2018-12-01T00:58:28.399Z,1.02
2018-12-01T00:59:38.550Z,1.03
2018-12-01T01:00:48.758Z,1.02
2018-12-01T01:01:58.882Z,1.03
2018-12-01T01:03:09.014Z,1.1
2018-12-01T01:04:18.627Z,0.99
2018-12-01T01:05:28.601Z,1.02
2018-12-01T01:06:38.784Z,1.04
2018-12-01T01:07:48.658Z,1.03
2018-12-01T01:08:58.795Z,1.04
2018-12-01T01:10:10.186Z,1.03
2018-12-01T01:11:20.344Z,1.04
2018-12-01T01:12:30.681Z,1.07
2018-12-01T01:13:40.882Z,1.02
2018-12-01T01:14:51.015Z,1.1
2018-12-01T01:16:01.159Z,1.07
2018-12-01T01:17:11.015Z,1.02
2018-12-01T01:18:21.192Z,1.07
2018-12-01T01:19:31.321Z,1.03
2018-12-01T01:20:41.455Z,1.07
2018-12-01T01:21:51.572Z,1.07
2018-12-01T01:23:01.697Z,1
2018-12-01T01:24:11.533Z,0.93
2018-12-01T01:25:21.907Z,0.92
2018-12-01T01:26:32.042Z,0.97
2018-12-01T01:27:42.184Z,1.02
2018-12-01T01:28:52.451Z,1.08
2018-12-01T01:30:02.583Z,1.03
2018-12-01T01:31:12.471Z,1.11
2018-12-01T01:32:22.349Z,1.02
2018-12-01T01:33:32.227Z,1.07
2018-12-01T01:34:41.840Z,0.99
2018-12-01T01:35:52.014Z,1.04
2018-12-01T01:37:02.135Z,1.02
2018-12-01T01:38:11.995Z,1.03
2018-12-01T01:39:22.131Z,0.99
2018-12-01T01:40:32.273Z,1.07
2018-12-01T01:41:42.441Z,1.02
2018-12-01T01:42:52.328Z,1.07
2018-12-01T01:44:02.202Z,1.1
2018-12-01T01:45:12.698Z,1.07
2018-12-01T01:46:22.829Z,1.02
2018-12-01T01:47:32.956Z,1.11
2018-12-01T01:48:43.069Z,1.03
2018-12-01T01:49:53.195Z,1.07
2018-12-01T01:51:03.321Z,1.04
2018-12-01T01:52:13.462Z,1
2018-12-01T01:53:23.603Z,1.04
2018-12-01T01:54:33.466Z,1.14
2018-12-01T01:55:43.588Z,1.04
2018-12-01T01:56:53.721Z,1.02
2018-12-01T01:58:03.861Z,1.03
2018-12-01T01:59:13.748Z,0.97
2018-12-01T02:00:23.981Z,1.14
2018-12-01T02:01:34.152Z,1.17
2018-12-01T02:02:44.121Z,1.2
2018-12-01T02:03:54.270Z,1.03
2018-12-01T02:05:04.477Z,1.11
2018-12-01T02:06:14.586Z,1.2
2018-12-01T02:07:24.410Z,1.21
2018-12-01T02:08:34.542Z,1.11
2018-12-01T02:09:44.705Z,1.12
2018-12-01T02:10:54.946Z,1.2
2018-12-01T02:12:05.492Z,1.17
2018-12-01T02:13:15.619Z,1.11
2018-12-01T02:14:25.510Z,1.14
2018-12-01T02:15:35.663Z,1.11
2018-12-01T02:16:45.605Z,1.1
2018-12-01T02:17:55.722Z,1.12
2018-12-01T02:19:06.148Z,1.14
2018-12-01T02:20:16.018Z,1.15
2018-12-01T02:21:26.171Z,1.11
2018-12-01T02:22:36.317Z,1.1
2018-12-01T02:23:46.440Z,1.17
2018-12-01T02:24:56.057Z,1.11
2018-12-01T02:26:07.022Z,1.07
2018-12-01T02:27:17.154Z,1.21
2018-12-01T02:28:27.076Z,1.14
2018-12-01T02:29:36.984Z,1.11
2018-12-01T02:30:47.172Z,1.15
2018-12-01T02:31:57.583Z,1.1
2018-12-01T02:33:08.228Z,1.2
2018-12-01T02:34:17.566Z,1.15
2018-12-01T02:35:27.931Z,1.2
2018-12-01T02:36:37.782Z,1.2
2018-12-01T02:37:48.017Z,1.18
2018-12-01T02:38:58.361Z,1.17
2018-12-01T02:40:10.835Z,1.17
2018-12-01T02:41:20.994Z,1.24
2018-12-01T02:42:31.117Z,1.22
2018-12-01T02:43:40.953Z,1.22
2018-12-01T02:44:51.067Z,1.21
2018-12-01T02:46:02.978Z,1.22
2018-12-01T02:47:12.855Z,1.22
2018-12-01T02:48:22.979Z,1.29
2018-12-01T02:49:33.126Z,1.33
2018-12-01T02:50:43.261Z,1.35
2018-12-01T02:51:53.444Z,1.33
2018-12-01T02:53:03.712Z,1.32
2018-12-01T02:54:13.836Z,1.35
2018-12-01T02:55:23.702Z,1.35
2018-12-01T02:56:33.834Z,1.3
2018-12-01T02:57:43.410Z,1.32
2018-12-01T02:58:53.257Z,1.36
2018-12-01T03:00:03.386Z,1.3
2018-12-01T03:01:13.532Z,1.36
2018-12-01T03:02:23.893Z,1.32
2018-12-01T03:03:33.860Z,1.35
2018-12-01T03:35:09.366Z,-0.72
2018-12-01T03:36:19.500Z,-0.79
2018-12-01T03:37:29.607Z,-0.76
2018-12-01T03:38:39.717Z,-0.62
2018-12-01T03:39:49.815Z,-0.69
2018-12-01T03:40:59.691Z,-0.64
2018-12-01T03:42:09.834Z,-0.49
2018-12-01T03:43:19.961Z,-0.36
2018-12-01T03:44:30.299Z,-0.31
2018-12-01T03:45:40.434Z,-0.22
2018-12-01T03:46:50.310Z,-0.18
2018-12-01T03:48:02.871Z,-0.12
2018-12-01T03:49:13.103Z,0.09
2018-12-01T03:50:23.442Z,0.16
2018-12-01T03:51:33.561Z,0.23
2018-12-01T03:52:44.195Z,0.31
2018-12-01T03:53:54.324Z,0.38
2018-12-01T03:55:04.457Z,0.53
2018-12-01T03:56:14.636Z,0.61
2018-12-01T03:57:24.508Z,0.66
2018-12-01T03:58:34.622Z,0.72
2018-12-01T03:59:44.692Z,0.85
2018-12-01T04:00:54.834Z,0.84
2018-12-01T04:02:05.252Z,0.93
2018-12-01T04:03:15.127Z,0.93
2018-12-01T04:04:25.311Z,0.93
2018-12-01T04:05:35.150Z,0.99
2018-12-01T04:06:45.271Z,1.08
2018-12-01T04:07:55.635Z,1.04
2018-12-01T04:09:05.760Z,1.14
2018-12-01T04:10:15.945Z,1
2018-12-01T04:11:26.069Z,1.11
2018-12-01T04:12:36.240Z,1.14
2018-12-01T04:13:46.433Z,1.04
2018-12-01T04:14:56.266Z,1.22
2018-12-01T04:16:06.387Z,1.21
2018-12-01T04:17:16.520Z,1.15
2018-12-01T04:18:26.641Z,1.2
2018-12-01T04:19:36.764Z,1.18
2018-12-01T04:20:46.887Z,1.21
2018-12-01T04:21:57.073Z,1.24
2018-12-01T04:23:07.213Z,1.2
2018-12-01T04:24:17.342Z,1.24
2018-12-01T04:25:27.473Z,1.21
2018-12-01T04:26:37.594Z,1.26
2018-12-01T04:27:47.788Z,1.22
2018-12-01T04:28:57.701Z,1.26
2018-12-01T04:30:07.613Z,1.26
2018-12-01T04:31:17.530Z,1.29
2018-12-01T04:32:27.656Z,1.17
2018-12-01T04:33:38.270Z,1.24
2018-12-01T04:37:36.889Z,1.24
2018-12-01T04:38:46.793Z,1.2
2018-12-01T04:39:56.652Z,1.17
2018-12-01T04:41:07.820Z,1.33
2018-12-01T04:42:18.014Z,1.24
2018-12-01T04:43:28.160Z,1.24
2018-12-01T04:44:38.386Z,1.21
2018-12-01T04:45:48.515Z,1.2
2018-12-01T04:46:58.638Z,1.29
2018-12-01T04:48:09.182Z,1.28
2018-12-01T04:49:19.067Z,1.2
2018-12-01T04:50:29.390Z,1.17
2018-12-01T04:51:39.528Z,1.17
2018-12-01T04:52:49.923Z,1.21
2018-12-01T04:54:00.097Z,1.26
2018-12-01T04:55:09.968Z,1.28
2018-12-01T04:56:20.093Z,1.2
2018-12-01T04:57:30.319Z,1.3
2018-12-01T04:58:40.505Z,1.22
2018-12-01T04:59:51.077Z,1.29
2018-12-01T05:01:01.214Z,1.24
2018-12-01T05:02:11.325Z,1.26
2018-12-01T05:03:21.470Z,1.28
2018-12-01T05:04:31.287Z,1.32
2018-12-01T05:05:41.178Z,1.33
2018-12-01T05:06:51.331Z,1.3
2018-12-01T05:08:01.209Z,1.3
2018-12-01T05:09:11.344Z,1.35
2018-12-01T05:10:21.465Z,1.32
2018-12-01T05:11:31.395Z,1.33
2018-12-01T05:12:41.593Z,1.33
2018-12-01T05:13:51.447Z,1.3
2018-12-01T05:15:02.635Z,1.4
2018-12-01T05:16:12.770Z,1.39
2018-12-01T05:17:22.912Z,1.4
2018-12-01T05:18:33.049Z,1.36
2018-12-01T05:19:42.913Z,1.32
2018-12-01T05:20:52.780Z,1.38
2018-12-01T05:22:02.936Z,1.35
2018-12-01T05:23:13.061Z,1.42
2018-12-01T05:24:23.179Z,1.42
2018-12-01T05:25:33.309Z,1.44
2018-12-01T05:26:43.702Z,1.42
2018-12-01T05:27:53.573Z,1.33
2018-12-01T05:29:03.679Z,1.35
2018-12-01T05:30:13.244Z,1.32
2018-12-01T05:31:23.394Z,1.46
2018-12-01T05:32:33.332Z,1.39
2018-12-01T05:33:43.761Z,1.44
2018-12-01T05:34:53.900Z,1.44
2018-12-01T05:36:04.067Z,1.44
2018-12-01T05:37:14.948Z,1.5
2018-12-01T05:38:24.809Z,1.51
2018-12-01T05:39:34.969Z,1.54
2018-12-01T05:40:45.082Z,1.47
2018-12-01T05:41:55.199Z,1.46
2018-12-01T05:43:07.060Z,1.42
2018-12-01T05:44:17.186Z,1.42
2018-12-01T05:45:27.043Z,1.5
2018-12-01T05:46:37.209Z,1.5
2018-12-01T05:47:47.558Z,1.51
2018-12-01T05:48:57.700Z,1.51
2018-12-01T05:50:08.617Z,1.44
2018-12-01T05:51:18.492Z,1.54
2018-12-01T05:52:28.634Z,1.47
2018-12-01T05:53:38.743Z,1.44
2018-12-01T05:54:48.632Z,1.53
2018-12-01T05:55:58.810Z,1.5
2018-12-01T05:57:09.137Z,1.48
2018-12-01T05:58:19.328Z,1.44
2018-12-01T05:59:29.507Z,1.57
2018-12-01T06:00:39.381Z,1.44
2018-12-01T06:01:49.251Z,1.57
2018-12-01T06:02:59.579Z,1.56
2018-12-01T06:04:09.703Z,1.46
2018-12-01T06:05:19.893Z,1.47
2018-12-01T06:06:30.012Z,1.44
2018-12-01T06:07:40.147Z,1.5
2018-12-01T06:08:50.295Z,1.53
2018-12-01T06:10:00.185Z,1.5
2018-12-01T06:11:10.548Z,1.54
2018-12-01T06:12:20.415Z,1.47
2018-12-01T06:13:30.410Z,1.44
2018-12-01T06:14:40.645Z,1.53
2018-12-01T06:15:50.781Z,1.54
2018-12-01T06:17:00.924Z,1.56
2018-12-01T06:18:11.052Z,1.57
2018-12-01T06:19:20.946Z,1.6
2018-12-01T06:20:31.083Z,1.58
2018-12-01T06:21:41.228Z,1.46
2018-12-01T06:22:51.417Z,1.6
2018-12-01T06:24:03.027Z,1.46
2018-12-01T06:25:13.188Z,1.54
2018-12-01T06:26:23.337Z,1.44
2018-12-01T06:27:33.822Z,1.53
2018-12-01T06:28:44.013Z,1.48
2018-12-01T06:29:54.134Z,1.44
2018-12-01T06:31:04.285Z,1.5
2018-12-01T06:32:13.899Z,1.44
2018-12-01T06:33:24.036Z,1.48
2018-12-01T06:34:33.962Z,1.53
2018-12-01T06:35:44.100Z,1.6
2018-12-01T06:36:54.271Z,1.6
2018-12-01T06:38:04.454Z,1.58
2018-12-01T06:39:14.056Z,1.54
2018-12-01T06:40:24.290Z,1.54
2018-12-01T06:41:34.488Z,1.58
2018-12-01T06:42:44.638Z,1.6
2018-12-01T06:43:54.527Z,1.6
2018-12-01T06:45:04.646Z,1.57
2018-12-01T06:46:14.774Z,1.64
2018-12-01T06:47:24.655Z,1.65
2018-12-01T06:48:34.776Z,1.57
2018-12-01T06:49:44.914Z,1.58
2018-12-01T06:50:55.040Z,1.66
2018-12-01T06:52:05.567Z,1.58
2018-12-01T06:53:15.454Z,1.65
2018-12-01T06:54:25.572Z,1.66
2018-12-01T06:55:35.698Z,1.65
2018-12-01T06:56:45.572Z,1.65
2018-12-01T06:57:55.718Z,1.66
2018-12-01T06:59:08.960Z,1.65
2018-12-01T07:00:19.083Z,1.58
2018-12-01T07:01:29.211Z,1.6
2018-12-01T07:02:39.357Z,1.71
2018-12-01T07:03:49.290Z,1.74
2018-12-01T07:04:59.172Z,1.74
2018-12-01T07:06:09.328Z,1.72
2018-12-01T07:07:19.483Z,1.72
2018-12-01T07:08:29.782Z,1.75
2018-12-01T07:09:39.923Z,1.79
2018-12-01T07:10:50.071Z,1.86
2018-12-01T07:12:01.317Z,1.79
2018-12-01T07:13:11.486Z,1.75
2018-12-01T07:14:21.641Z,1.74
2018-12-01T07:15:32.156Z,1.72
2018-12-01T07:16:42.366Z,1.87
2018-12-01T07:17:52.511Z,1.78
2018-12-01T07:19:02.313Z,1.82
2018-12-01T07:20:12.207Z,1.86
2018-12-01T07:21:22.129Z,1.84
2018-12-01T07:22:32.294Z,1.89
2018-12-01T07:23:42.420Z,1.87
2018-12-01T07:24:52.567Z,1.94
2018-12-01T07:26:02.750Z,1.97
2018-12-01T07:27:13.008Z,2.05
2018-12-01T07:28:23.951Z,2.11
2018-12-01T07:29:34.338Z,2.12
2018-12-01T07:30:44.204Z,2.16
2018-12-01T07:31:54.372Z,2.18
2018-12-01T07:33:04.549Z,2.23
2018-12-01T07:34:14.687Z,2.22
2018-12-01T07:35:24.852Z,2.11
2018-12-01T07:36:34.983Z,2.24
2018-12-01T07:37:45.135Z,2.34
2018-12-01T07:38:56.082Z,2.31
2018-12-01T07:40:08.793Z,2.38
2018-12-01T07:41:18.639Z,2.34
2018-12-01T07:42:28.772Z,2.41
2018-12-01T07:43:38.954Z,2.41
2018-12-01T07:44:49.486Z,2.45
2018-12-01T07:45:59.845Z,2.48
2018-12-01T07:47:10.000Z,2.49
2018-12-01T07:48:20.123Z,2.54
2018-12-01T07:49:30.265Z,2.62
2018-12-01T07:50:40.403Z,2.7
2018-12-01T07:51:50.577Z,2.62
2018-12-01T07:53:00.450Z,2.73
2018-12-01T07:54:10.590Z,2.77
2018-12-01T07:55:20.523Z,2.93
2018-12-01T07:56:30.359Z,3.05
2018-12-01T07:57:40.277Z,3.09
2018-12-01T07:58:50.447Z,3.19
2018-12-01T08:00:00.608Z,3.27
2018-12-01T08:01:11.036Z,3.34
2018-12-01T08:02:21.296Z,3.49
2018-12-01T08:03:31.762Z,3.51
2018-12-01T08:04:41.887Z,3.66
2018-12-01T08:05:52.057Z,3.74
2018-12-01T08:07:03.135Z,3.75
2018-12-01T08:08:13.394Z,3.81
2018-12-01T08:09:23.581Z,3.89
2018-12-01T08:10:33.743Z,3.93
2018-12-01T08:11:43.934Z,3.86
2018-12-01T08:12:54.116Z,3.94
2018-12-01T08:14:04.270Z,4.11
2018-12-01T08:15:14.404Z,4.18
2018-12-01T08:16:24.549Z,4.2
2018-12-01T08:17:34.695Z,4.15
2018-12-01T08:18:44.859Z,4.08
2018-12-01T08:19:54.994Z,4.03
2018-12-01T08:21:04.885Z,3.97
2018-12-01T08:22:15.006Z,3.93
2018-12-01T08:23:24.880Z,3.92
2018-12-01T08:24:35.064Z,3.74
2018-12-01T08:25:45.252Z,3.75
2018-12-01T08:26:55.395Z,3.63
2018-12-01T08:28:05.712Z,3.6
2018-12-01T08:29:15.839Z,3.56
2018-12-01T08:30:25.979Z,3.46
2018-12-01T08:31:36.114Z,3.46
2018-12-01T08:32:45.720Z,3.4
2018-12-01T08:33:55.860Z,3.51
2018-12-01T08:35:05.990Z,3.46
2018-12-01T08:36:16.127Z,3.42
2018-12-01T08:37:26.312Z,3.4
2018-12-01T08:38:36.454Z,3.53
2018-12-01T08:39:46.603Z,3.53
2018-12-01T08:40:56.740Z,3.57
2018-12-01T08:42:06.880Z,3.53
2018-12-01T08:43:16.746Z,3.63
2018-12-01T08:44:27.147Z,3.75
2018-12-01T08:45:37.034Z,3.82
2018-12-01T08:46:47.194Z,3.86
2018-12-01T08:47:57.314Z,3.86
2018-12-01T08:49:08.400Z,3.94
2018-12-01T08:50:18.556Z,4.12
2018-12-01T08:51:28.743Z,4.14
2018-12-01T08:52:38.878Z,4.29
2018-12-01T08:53:49.055Z,4.17
2018-12-01T08:54:59.197Z,4.36
2018-12-01T08:56:09.600Z,4.3
2018-12-01T08:57:19.855Z,4.33
2018-12-01T08:58:29.757Z,4.33
2018-12-01T08:59:39.953Z,4.35
2018-12-01T09:00:50.096Z,4.39
2018-12-01T09:02:00.352Z,4.57
2018-12-01T09:03:10.495Z,4.47
2018-12-01T09:04:20.645Z,4.44
2018-12-01T09:05:30.824Z,4.32
2018-12-01T09:06:40.695Z,4.28
2018-12-01T09:07:50.814Z,4.3
2018-12-01T09:09:03.849Z,4.21
2018-12-01T09:10:13.977Z,4.12
2018-12-01T09:11:23.897Z,4.1
2018-12-01T09:12:33.839Z,4.03
2018-12-01T09:13:44.009Z,3.99
2018-12-01T09:14:53.901Z,4.02
2018-12-01T09:16:03.832Z,3.99
2018-12-01T09:17:13.966Z,4
2018-12-01T09:18:24.102Z,4.1
2018-12-01T09:19:33.960Z,4.11
2018-12-01T09:20:44.127Z,4.08
2018-12-01T09:21:53.717Z,4.08
2018-12-01T09:23:03.697Z,4.1
2018-12-01T09:24:13.809Z,4.02
2018-12-01T09:25:23.928Z,4
2018-12-01T09:26:34.068Z,3.92
2018-12-01T09:27:44.192Z,3.94
2018-12-01T09:28:54.064Z,3.89
2018-12-01T09:30:04.169Z,3.78
2018-12-01T09:31:14.351Z,3.86
2018-12-01T09:32:24.495Z,3.85
2018-12-01T09:33:34.625Z,3.86
2018-12-01T09:34:44.745Z,3.89
2018-12-01T09:35:54.381Z,3.94
2018-12-01T09:37:05.625Z,3.86
2018-12-01T09:38:15.510Z,4.03
2018-12-01T09:39:25.608Z,4
2018-12-01T09:40:35.732Z,4.08
2018-12-01T09:41:45.575Z,4.11
2018-12-01T09:42:55.818Z,4.2
2018-12-01T09:44:07.786Z,4.21
2018-12-01T09:45:17.418Z,4.18
2018-12-01T09:46:27.300Z,4.14
2018-12-01T09:47:37.508Z,4.39
2018-12-01T09:48:47.380Z,4.38
2018-12-01T09:49:57.573Z,4.36
2018-12-01T09:51:07.707Z,4.5
2018-12-01T09:52:18.810Z,4.58
2018-12-01T09:53:30.162Z,4.65
2018-12-01T09:54:41.386Z,4.83
2018-12-01T09:55:52.743Z,4.87
2018-12-01T09:57:03.925Z,4.88
2018-12-01T09:58:14.559Z,4.87
2018-12-01T09:59:24.909Z,4.87
2018-12-01T10:00:35.208Z,4.75
2018-12-01T10:01:44.891Z,4.78
2018-12-01T10:02:55.023Z,4.71
2018-12-01T10:04:05.266Z,4.68
2018-12-01T10:05:15.417Z,4.61
2018-12-01T10:06:25.463Z,4.54
2018-12-01T10:07:35.638Z,4.57
2018-12-01T10:08:45.830Z,4.66
2018-12-01T10:09:55.805Z,4.72
2018-12-01T10:11:06.100Z,4.68
2018-12-01T10:12:16.337Z,4.65
2018-12-01T10:13:26.461Z,4.61
2018-12-01T10:14:36.613Z,4.6
2018-12-01T10:15:46.751Z,4.66
2018-12-01T10:16:57.123Z,4.61
2018-12-01T10:18:08.485Z,4.61
2018-12-01T10:19:18.625Z,4.54
2018-12-01T10:20:28.740Z,4.5
2018-12-01T10:21:38.886Z,4.51
2018-12-01T10:22:49.028Z,4.36
2018-12-01T10:23:59.140Z,4.39
2018-12-01T10:25:09.296Z,4.3
2018-12-01T10:26:19.435Z,4.24
2018-12-01T10:27:29.569Z,4.26
2018-12-01T10:28:39.712Z,4.17
2018-12-01T10:29:49.859Z,4.2
2018-12-01T10:31:00.002Z,4.29
2018-12-01T10:32:10.647Z,4.24
2018-12-01T10:33:20.795Z,4.26
2018-12-01T10:34:30.913Z,4.29
2018-12-01T10:35:41.059Z,4.28
2018-12-01T10:36:50.947Z,4.26
2018-12-01T10:38:01.103Z,4.15
2018-12-01T10:39:11.232Z,4.3
2018-12-01T10:40:21.397Z,4.24
2018-12-01T10:41:31.610Z,4.24
2018-12-01T10:42:41.493Z,4.24
2018-12-01T10:43:51.648Z,4.2
2018-12-01T10:45:01.801Z,4.24
2018-12-01T10:46:11.689Z,4.14
2018-12-01T10:47:21.678Z,4.21
2018-12-01T10:48:31.820Z,4.21
2018-12-01T10:49:42.000Z,4.21
2018-12-01T10:50:52.161Z,4.2
2018-12-01T10:52:02.294Z,4.2
2018-12-01T10:53:12.427Z,4.22
2018-12-01T10:54:22.267Z,4.22
2018-12-01T10:55:32.160Z,4.2
2018-12-01T10:56:42.278Z,4.21
2018-12-01T10:57:52.449Z,4.15
2018-12-01T10:59:03.135Z,4.15
2018-12-01T11:00:13.509Z,4.12
2018-12-01T11:01:23.712Z,4.1
2018-12-01T11:02:33.585Z,4.02
2018-12-01T11:03:43.749Z,4.03
2018-12-01T11:04:53.386Z,4.07
2018-12-01T11:06:03.786Z,4.11
2018-12-01T11:07:13.950Z,4
2018-12-01T11:08:24.086Z,4.02
2018-12-01T11:09:34.457Z,3.99
2018-12-01T11:10:44.601Z,4
2018-12-01T11:12:00.850Z,4.07
2018-12-01T11:13:10.971Z,3.97
2018-12-01T11:14:21.162Z,3.99
2018-12-01T11:15:31.055Z,3.94
2018-12-01T11:16:41.272Z,3.99
2018-12-01T11:17:51.259Z,3.94
2018-12-01T11:19:01.401Z,3.93
2018-12-01T11:20:11.594Z,4.03
2018-12-01T11:21:21.421Z,3.94
2018-12-01T11:22:31.576Z,4.04
2018-12-01T11:23:41.719Z,4.02
2018-12-01T11:24:51.591Z,3.94
2018-12-01T11:26:02.284Z,3.96
2018-12-01T11:27:12.422Z,4.02
2018-12-01T11:28:22.363Z,4.03
2018-12-01T11:29:32.513Z,4.03
2018-12-01T11:30:42.407Z,4
2018-12-01T11:31:52.592Z,4.04
2018-12-01T11:33:03.828Z,4.08
2018-12-01T11:34:13.990Z,4.04
2018-12-01T11:35:23.879Z,4.04
2018-12-01T11:36:34.051Z,3.99
2018-12-01T11:37:44.219Z,4.02
2018-12-01T11:38:54.384Z,4
2018-12-01T11:40:04.534Z,3.94
2018-12-01T11:41:14.689Z,3.93
2018-12-01T11:42:24.823Z,3.92
2018-12-01T11:43:35.014Z,4.02
2018-12-01T11:44:45.123Z,3.93
2018-12-01T11:45:55.266Z,3.94
2018-12-01T11:47:05.432Z,4.04
2018-12-01T11:48:15.618Z,3.96
2018-12-01T11:49:26.723Z,4.02
2018-12-01T11:50:36.670Z,3.97
2018-12-01T11:51:46.538Z,3.85
2018-12-01T11:52:56.440Z,3.84
2018-12-01T11:54:06.582Z,3.9
2018-12-01T11:55:16.877Z,3.84
2018-12-01T11:56:27.062Z,3.85
2018-12-01T11:57:37.218Z,3.9
2018-12-01T11:58:47.431Z,3.79
2018-12-01T11:59:57.575Z,3.86
2018-12-01T12:01:08.637Z,3.86
2018-12-01T12:02:19.082Z,3.84
2018-12-01T12:03:29.271Z,3.74
2018-12-01T12:04:39.455Z,3.75
2018-12-01T12:05:49.596Z,3.67
2018-12-01T12:07:02.132Z,3.6
2018-12-01T12:08:12.248Z,3.64
2018-12-01T12:09:22.378Z,3.71
2018-12-01T12:10:32.485Z,3.66
2018-12-01T12:11:42.915Z,3.78
2018-12-01T12:12:53.046Z,3.81
2018-12-01T12:14:05.363Z,3.64
2018-12-01T12:15:15.565Z,3.76
2018-12-01T12:16:25.467Z,3.64
2018-12-01T12:17:35.593Z,3.63
2018-12-01T12:18:45.732Z,3.57
2018-12-01T12:19:55.614Z,3.61
2018-12-01T12:21:05.680Z,3.57
2018-12-01T12:22:15.804Z,3.57
2018-12-01T12:23:25.945Z,3.42
2018-12-01T12:24:36.110Z,3.4
2018-12-01T12:25:46.232Z,3.42
2018-12-01T12:26:56.400Z,3.42
2018-12-01T12:28:06.533Z,3.4
2018-12-01T12:29:16.661Z,3.37
2018-12-01T12:30:30.648Z,3.39
2018-12-01T12:31:40.842Z,3.35
2018-12-01T12:32:51.012Z,3.42
2018-12-01T12:34:01.382Z,3.42
2018-12-01T12:35:11.749Z,3.34
2018-12-01T12:36:21.885Z,3.35
2018-12-01T12:37:32.037Z,3.37
2018-12-01T12:38:42.242Z,3.42
2018-12-01T12:39:52.399Z,3.42
2018-12-01T12:41:02.504Z,3.42
2018-12-01T12:42:12.906Z,3.39
2018-12-01T12:43:23.059Z,3.39
2018-12-01T12:44:33.184Z,3.45
2018-12-01T12:45:43.363Z,3.39
2018-12-01T12:46:53.515Z,3.45
2018-12-01T12:48:03.675Z,3.34
2018-12-01T12:49:13.826Z,3.37
2018-12-01T12:50:23.948Z,3.37
2018-12-01T12:51:34.172Z,3.4
2018-12-01T12:52:44.288Z,3.3
2018-12-01T12:53:54.676Z,3.37
2018-12-01T12:55:05.084Z,3.32
2018-12-01T12:56:15.217Z,3.3
2018-12-01T12:57:25.573Z,3.37
2018-12-01T12:58:35.726Z,3.37
2018-12-01T12:59:46.118Z,3.3
2018-12-01T13:00:56.498Z,3.34
2018-12-01T13:02:06.696Z,3.32
2018-12-01T13:03:16.830Z,3.34
2018-12-01T13:04:27.005Z,3.27
2018-12-01T13:05:37.131Z,3.27
2018-12-01T13:06:47.015Z,3.27
2018-12-01T13:07:57.166Z,3.27
2018-12-01T13:09:07.045Z,3.2
2018-12-01T13:10:17.196Z,3.2
2018-12-01T13:11:27.340Z,3.27
2018-12-01T13:12:37.473Z,3.16
2018-12-01T13:13:47.854Z,3.19
2018-12-01T13:14:57.995Z,3.11
2018-12-01T13:16:08.126Z,3.14
2018-12-01T13:17:18.274Z,3.14
2018-12-01T13:18:28.220Z,3.16
2018-12-01T13:19:38.350Z,3.14
2018-12-01T13:20:48.555Z,3.16
2018-12-01T13:21:58.705Z,3.14
2018-12-01T13:23:10.597Z,3.09
2018-12-01T13:24:20.730Z,3.17
2018-12-01T13:25:30.876Z,3.11
2018-12-01T13:26:41.082Z,3.19
2018-12-01T13:27:51.222Z,3.17
2018-12-01T13:29:03.073Z,3.14
2018-12-01T13:30:13.251Z,3.14
2018-12-01T13:31:23.403Z,3.11
2018-12-01T13:32:33.580Z,3.11
2018-12-01T13:33:43.725Z,3.16
2018-12-01T13:34:53.685Z,3.09
2018-12-01T13:36:03.922Z,3.06
2018-12-01T13:37:13.809Z,3.09
2018-12-01T13:38:26.167Z,3.13
2018-12-01T13:39:36.345Z,3.13
2018-12-01T13:40:46.528Z,3.08
2018-12-01T13:41:56.724Z,3.03
2018-12-01T13:43:06.891Z,2.98
2018-12-01T13:44:16.770Z,3.11
2018-12-01T13:45:26.950Z,2.98
2018-12-01T13:46:37.075Z,3.08
2018-12-01T13:47:47.032Z,2.98
2018-12-01T13:48:57.194Z,3.01
2018-12-01T13:50:07.071Z,3.03
2018-12-01T13:51:17.228Z,2.98
2018-12-01T13:52:27.359Z,2.99
2018-12-01T13:53:37.248Z,3.06
2018-12-01T13:54:47.371Z,2.95
2018-12-01T13:55:57.513Z,2.98
2018-12-01T13:57:07.695Z,2.98
2018-12-01T13:58:17.859Z,3.02
2018-12-01T13:59:28.330Z,3.03
2018-12-01T14:00:38.447Z,3.03
2018-12-01T14:01:48.939Z,3.11
2018-12-01T14:02:59.116Z,3.05
2018-12-01T14:04:09.489Z,3.06
2018-12-01T14:05:19.634Z,3.05
2018-12-01T14:06:29.767Z,3.05
2018-12-01T14:07:40.050Z,2.99
2018-12-01T14:08:50.322Z,3.03
2018-12-01T14:10:01.738Z,3.05
2018-12-01T14:11:11.661Z,3.17
2018-12-01T14:12:21.788Z,3.11
2018-12-01T14:13:31.966Z,3.08
2018-12-01T14:14:42.087Z,3.2
2018-12-01T14:15:52.227Z,3.16
2018-12-01T14:17:04.918Z,3.16
2018-12-01T14:18:15.074Z,3.16
2018-12-01T14:19:25.233Z,3.26
2018-12-01T14:20:35.126Z,3.39
2018-12-01T14:21:45.296Z,3.3
2018-12-01T14:22:55.473Z,3.32
2018-12-01T14:24:05.647Z,3.27
2018-12-01T14:25:15.801Z,3.32
2018-12-01T14:26:25.951Z,3.39
2018-12-01T14:27:36.130Z,3.3
2018-12-01T14:28:46.265Z,3.34
2018-12-01T14:29:56.397Z,3.34
2018-12-01T14:31:06.547Z,3.4
2018-12-01T14:32:16.675Z,3.32
2018-12-01T14:33:26.800Z,3.34
2018-12-01T14:34:36.937Z,3.34
2018-12-01T14:35:47.078Z,3.37
2018-12-01T14:36:57.228Z,3.23
2018-12-01T14:38:07.393Z,3.29
2018-12-01T14:39:17.522Z,3.23
2018-12-01T14:40:27.662Z,3.24
2018-12-01T14:41:39.073Z,3.29
2018-12-01T14:42:49.270Z,3.26
2018-12-01T14:43:59.434Z,3.27
2018-12-01T14:45:09.270Z,3.24
2018-12-01T14:46:19.386Z,3.13
2018-12-01T14:47:31.545Z,3.14
2018-12-01T14:48:41.676Z,3.16
2018-12-01T14:49:51.822Z,3.17
2018-12-01T14:51:01.712Z,3.19
2018-12-01T14:52:11.862Z,3.14
2018-12-01T14:53:21.493Z,3.14
2018-12-01T14:54:31.974Z,3.17
2018-12-01T14:55:42.130Z,3.09
2018-12-01T14:56:52.014Z,3.13
2018-12-01T14:58:01.913Z,3.13
2018-12-01T14:59:12.063Z,3.16
2018-12-01T15:00:22.200Z,3.14
2018-12-01T15:01:32.059Z,3.16
2018-12-01T15:02:42.229Z,3.09
2018-12-01T15:03:52.350Z,3.09
2018-12-01T15:05:02.223Z,3.13
2018-12-01T15:06:12.427Z,3.08
2018-12-01T15:07:22.349Z,3.11
2018-12-01T15:08:32.431Z,3.11
2018-12-01T15:09:42.582Z,3.14
2018-12-01T15:10:52.737Z,3.03
2018-12-01T15:12:02.873Z,3.05
2018-12-01T15:13:13.023Z,3.11
2018-12-01T15:14:22.933Z,3.05
2018-12-01T15:15:33.101Z,2.96
2018-12-01T15:16:43.254Z,3.03
2018-12-01T15:17:53.611Z,3.06
2018-12-01T15:19:03.727Z,2.96
2018-12-01T15:20:13.872Z,2.98
2018-12-01T15:21:24.018Z,2.96
2018-12-01T15:22:33.898Z,3.01
2018-12-01T15:23:44.027Z,2.99
2018-12-01T15:24:53.917Z,2.98
2018-12-01T15:26:04.084Z,2.98
2018-12-01T15:27:14.234Z,2.98
2018-12-01T15:28:24.490Z,3.01
2018-12-01T15:29:34.688Z,3.01
2018-12-01T15:30:44.828Z,2.96
2018-12-01T15:31:55.036Z,2.9
2018-12-01T15:33:05.580Z,2.96
2018-12-01T15:34:15.768Z,2.98
2018-12-01T15:35:25.707Z,3.05
2018-12-01T15:36:35.858Z,2.96
2018-12-01T15:37:46.025Z,3.02
2018-12-01T15:38:56.182Z,3.01
2018-12-01T15:40:08.340Z,2.99
2018-12-01T15:41:18.264Z,3.03
2018-12-01T15:42:28.416Z,3.02
2018-12-01T15:43:38.309Z,3.02
2018-12-01T15:44:48.459Z,3.08
2018-12-01T15:45:58.587Z,3.03
2018-12-01T15:47:08.508Z,3.09
2018-12-01T15:48:18.638Z,3.03
2018-12-01T15:49:28.812Z,3.02
2018-12-01T15:50:39.055Z,2.98
2018-12-01T15:51:49.191Z,2.99
2018-12-01T15:52:59.763Z,2.98
2018-12-01T15:54:09.958Z,2.93
2018-12-01T15:55:20.108Z,2.95
2018-12-01T15:56:30.018Z,2.95
2018-12-01T15:57:40.397Z,2.98
2018-12-01T15:58:50.570Z,2.96
2018-12-01T16:00:00.470Z,3.08
2018-12-01T16:01:10.605Z,3.01
2018-12-01T16:02:20.733Z,3.11
2018-12-01T16:03:30.887Z,3.11
2018-12-01T16:04:41.050Z,3.01
2018-12-01T16:05:51.176Z,3.11
2018-12-01T16:07:02.026Z,3.06
2018-12-01T16:08:11.925Z,3.05
2018-12-01T16:09:22.057Z,3.13
2018-12-01T16:10:32.439Z,3.14
2018-12-01T16:11:42.591Z,3.13